Time;durP1;ratioP1;P1;durP2;ratioP2;P2;SDS_P1;SDS_P2;PMS_P1;PMS_P2;Temp;Humidity;BMP_temperature;BMP_pressure;BME280_temperature;BME280_humidity;BME280_pressure;Samples;Min_cycle;Max_cycle;Signal;HPM_P1;HPM_P2
2022/04/19 00:01:51;;;;;;;9.32;3.90;;;7.60;99.90;;;;;;5074954;28;20359;-71
2022/04/19 00:04:18;;;;;;;10.18;3.40;;;7.70;99.90;;;;;;5068458;28;20021;-71
2022/04/19 00:06:45;;;;;;;11.05;3.17;;;7.70;99.90;;;;;;5069087;28;20473;-72
2022/04/19 00:09:11;;;;;;;11.07;3.17;;;7.70;99.90;;;;;;5071215;28;20042;-72
2022/04/19 00:11:36;;;;;;;12.30;3.45;;;7.70;99.90;;;;;;5089173;28;20111;-71
2022/04/19 00:14:02;;;;;;;9.57;3.08;;;7.80;99.90;;;;;;5074885;28;20493;-71
2022/04/19 00:16:28;;;;;;;12.18;3.10;;;7.80;99.90;;;;;;5068998;28;20036;-71
2022/04/19 00:18:54;;;;;;;10.02;3.30;;;7.80;99.90;;;;;;5067547;28;20028;-72
2022/04/19 00:21:20;;;;;;;7.07;2.72;;;7.80;99.90;;;;;;5087473;28;20095;-71
2022/04/19 00:23:46;;;;;;;7.97;3.40;;;7.70;99.90;;;;;;5087488;28;20024;-71
2022/04/19 00:26:12;;;;;;;20.20;4.03;;;7.80;99.90;;;;;;5089295;28;20020;-71
2022/04/19 00:28:38;;;;;;;8.13;3.28;;;7.70;99.90;;;;;;5079625;28;20040;-71
2022/04/19 00:31:04;;;;;;;9.40;2.90;;;7.70;99.90;;;;;;5086221;28;20031;-71
2022/04/19 00:33:30;;;;;;;7.10;2.95;;;7.70;99.90;;;;;;5088584;28;20024;-70
2022/04/19 00:35:56;;;;;;;8.35;2.80;;;7.50;99.90;;;;;;5088620;28;20406;-70
2022/04/19 00:38:22;;;;;;;8.35;2.90;;;7.50;99.90;;;;;;5088951;28;20035;-70
2022/04/19 00:40:48;;;;;;;8.18;2.60;;;7.50;99.90;;;;;;5088636;28;20076;-70
2022/04/19 00:43:18;;;;;;;8.52;2.97;;;7.60;99.90;;;;;;5084261;28;20032;-70
2022/04/19 00:45:43;;;;;;;8.50;2.40;;;7.50;99.90;;;;;;5068505;28;20020;-70
2022/04/19 00:48:10;;;;;;;7.15;2.42;;;7.60;99.90;;;;;;5067059;28;20024;-70
2022/04/19 00:50:36;;;;;;;5.05;2.42;;;7.60;99.90;;;;;;5081583;28;20032;-71
2022/04/19 00:53:04;;;;;;;6.28;2.50;;;7.50;99.90;;;;;;5088224;28;20072;-71
2022/04/19 00:55:31;;;;;;;6.25;2.85;;;7.50;99.90;;;;;;5087171;28;20458;-71
2022/04/19 00:57:57;;;;;;;5.63;2.30;;;7.60;99.90;;;;;;5085945;28;20088;-71
2022/04/19 01:00:23;;;;;;;5.72;2.25;;;7.60;99.90;;;;;;5079620;28;20024;-71
2022/04/19 01:02:49;;;;;;;6.07;2.20;;;7.70;99.90;;;;;;5088340;28;20020;-71
2022/04/19 01:05:15;;;;;;;6.38;2.58;;;7.60;99.90;;;;;;5088075;28;20028;-71
2022/04/19 01:07:45;;;;;;;6.47;2.13;;;7.60;99.90;;;;;;5088132;28;20026;-71
2022/04/19 01:10:10;;;;;;;9.23;1.77;;;7.60;99.90;;;;;;5086555;28;20069;-71
2022/04/19 01:15:20;;;;;;;6.18;1.90;;;7.50;99.90;;;;;;5080278;28;20120;-71
2022/04/19 01:17:47;;;;;;;5.03;1.77;;;7.50;99.90;;;;;;5067866;28;20534;-70
2022/04/19 01:20:13;;;;;;;5.13;2.17;;;7.50;99.90;;;;;;5077795;28;20077;-70
2022/04/19 01:22:40;;;;;;;8.55;2.00;;;7.50;99.90;;;;;;5088042;28;20028;-70
2022/04/19 01:25:07;;;;;;;3.42;1.90;;;7.40;99.90;;;;;;5087676;28;20020;-70
2022/04/19 01:27:34;;;;;;;6.07;2.00;;;7.40;99.90;;;;;;5088075;28;20111;-71
2022/04/19 01:30:03;;;;;;;3.90;2.05;;;7.50;99.90;;;;;;5079801;28;20043;-72
2022/04/19 01:32:29;;;;;;;4.15;1.75;;;7.50;99.90;;;;;;5088212;28;20299;-71
2022/04/19 01:35:13;;;;;;;5.65;2.30;;;7.50;99.90;;;;;;5088171;28;20028;-70
2022/04/19 01:37:47;;;;;;;6.07;1.75;;;7.50;99.90;;;;;;5080672;28;20111;-71
2022/04/19 01:40:16;;;;;;;5.65;1.85;;;7.50;99.90;;;;;;5077442;28;20028;-70
2022/04/19 01:42:52;;;;;;;6.70;1.70;;;7.60;99.90;;;;;;5088185;28;20020;-71
2022/04/19 01:45:20;;;;;;;3.72;1.60;;;7.60;99.90;;;;;;5070195;28;20485;-71
2022/04/19 01:47:45;;;;;;;5.75;1.50;;;7.60;99.90;;;;;;5067953;28;20637;-71
2022/04/19 01:50:13;;;;;;;3.90;1.95;;;7.60;99.90;;;;;;5067857;28;20036;-71
2022/04/19 01:52:40;;;;;;;5.88;2.00;;;7.60;99.90;;;;;;5067854;28;20074;-72
2022/04/19 01:55:07;;;;;;;6.70;2.42;;;7.50;99.90;;;;;;5067227;28;20380;-72
2022/04/19 01:57:34;;;;;;;3.92;1.70;;;7.50;99.90;;;;;;5067750;28;20120;-71
2022/04/19 02:00:01;;;;;;;3.55;1.60;;;7.50;99.90;;;;;;5075582;28;20043;-72
2022/04/19 02:02:26;;;;;;;4.75;2.13;;;7.50;99.90;;;;;;5082986;28;20028;-72
2022/04/19 02:04:52;;;;;;;5.95;1.85;;;7.50;99.90;;;;;;5067306;28;20035;-71
2022/04/19 02:07:18;;;;;;;6.65;2.13;;;7.50;99.90;;;;;;5066201;28;20043;-71
2022/04/19 02:09:44;;;;;;;5.82;1.70;;;7.40;99.90;;;;;;5072271;28;20369;-71
2022/04/19 02:12:10;;;;;;;3.92;1.95;;;7.40;99.90;;;;;;5087408;28;20024;-71
2022/04/19 02:14:36;;;;;;;6.93;1.90;;;7.40;99.90;;;;;;5076991;28;20033;-71
2022/04/19 02:17:02;;;;;;;9.80;2.50;;;7.30;99.90;;;;;;5068041;28;20622;-72
2022/04/19 02:19:28;;;;;;;7.13;2.15;;;7.20;99.90;;;;;;5070035;28;20132;-71
2022/04/19 02:21:53;;;;;;;7.05;2.03;;;7.30;99.90;;;;;;5086054;28;20027;-70
2022/04/19 02:24:19;;;;;;;8.85;1.83;;;7.50;99.90;;;;;;5065528;28;20043;-71
2022/04/19 02:26:45;;;;;;;8.85;2.42;;;7.70;99.90;;;;;;5068929;28;20031;-72
2022/04/19 02:29:11;;;;;;;5.68;1.70;;;8.00;99.90;;;;;;5071583;28;20044;-72
2022/04/19 02:31:38;;;;;;;4.50;1.85;;;8.00;99.90;;;;;;5072110;28;20048;-71
2022/04/19 02:34:05;;;;;;;3.90;1.90;;;8.00;99.90;;;;;;5072879;28;20392;-70
2022/04/19 02:36:31;;;;;;;7.50;2.20;;;8.10;99.90;;;;;;5079585;28;20020;-70
2022/04/19 02:38:59;;;;;;;4.20;1.88;;;8.00;99.90;;;;;;5091011;28;20030;-70
2022/04/19 02:41:25;;;;;;;4.65;2.13;;;8.00;99.90;;;;;;5081878;28;20032;-71
2022/04/19 02:43:51;;;;;;;9.38;2.55;;;8.00;99.90;;;;;;5077285;28;20411;-71
2022/04/19 02:46:17;;;;;;;5.25;1.70;;;8.00;99.90;;;;;;5079483;28;20085;-71
2022/04/19 02:48:43;;;;;;;5.45;1.85;;;8.00;99.90;;;;;;5076504;28;20045;-71
2022/04/19 02:51:08;;;;;;;2.85;1.48;;;7.90;99.90;;;;;;5081233;28;20071;-70
2022/04/19 02:53:34;;;;;;;9.27;2.50;;;7.90;99.90;;;;;;5071610;28;20017;-71
2022/04/19 02:56:01;;;;;;;6.47;2.00;;;7.90;99.90;;;;;;5082816;28;20031;-70
2022/04/19 02:58:27;;;;;;;9.52;3.00;;;7.80;99.90;;;;;;5076592;28;20024;-70
2022/04/19 03:00:52;;;;;;;4.72;1.90;;;7.80;99.90;;;;;;5086593;28;20376;-70
2022/04/19 03:03:18;;;;;;;6.88;2.30;;;7.80;99.90;;;;;;5084455;28;20085;-71
2022/04/19 03:05:44;;;;;;;5.78;1.92;;;7.80;99.90;;;;;;5088828;28;20024;-70
2022/04/19 03:08:09;;;;;;;5.28;2.08;;;7.70;99.90;;;;;;5086718;28;20028;-70
2022/04/19 03:10:35;;;;;;;5.60;2.72;;;7.70;99.90;;;;;;5089832;28;20078;-71
2022/04/19 03:13:01;;;;;;;7.97;2.20;;;7.70;99.90;;;;;;5090549;28;20102;-71
2022/04/19 03:15:27;;;;;;;6.72;1.90;;;7.70;99.90;;;;;;5090000;28;20115;-70
2022/04/19 03:17:53;;;;;;;3.13;1.80;;;7.80;99.90;;;;;;5086034;28;20451;-71
2022/04/19 03:20:19;;;;;;;7.20;2.40;;;7.80;99.90;;;;;;5078873;28;20016;-72
2022/04/19 03:28:13;;;;;;;3.78;1.73;;;7.70;99.90;;;;;;5089985;28;20047;-69
2022/04/19 03:30:39;;;;;;;11.95;2.08;;;7.60;99.90;;;;;;5089931;28;20032;-70
2022/04/19 03:33:05;;;;;;;4.65;1.98;;;7.60;99.90;;;;;;5073847;28;20103;-70
2022/04/19 03:35:31;;;;;;;7.60;1.83;;;7.60;99.90;;;;;;5069611;28;20329;-70
2022/04/19 03:37:56;;;;;;;7.18;2.10;;;7.60;99.90;;;;;;5069062;28;20416;-70
2022/04/19 03:40:22;;;;;;;7.85;2.03;;;7.50;99.90;;;;;;5072188;28;20036;-72
2022/04/19 03:42:48;;;;;;;9.80;1.98;;;7.40;99.90;;;;;;5070547;28;20039;-71
2022/04/19 03:45:14;;;;;;;4.22;2.00;;;7.30;99.90;;;;;;5070271;28;20089;-71
2022/04/19 03:47:39;;;;;;;7.35;2.40;;;7.30;99.90;;;;;;5069933;28;20059;-71
2022/04/19 03:50:06;;;;;;;5.40;2.15;;;7.30;99.90;;;;;;5089280;28;20069;-71
2022/04/19 03:52:34;;;;;;;5.28;1.83;;;7.30;99.90;;;;;;5089377;28;20386;-71
2022/04/19 03:55:00;;;;;;;4.05;1.83;;;7.20;99.90;;;;;;5088867;28;20411;-72
2022/04/19 03:57:26;;;;;;;4.60;2.08;;;7.20;99.90;;;;;;5069209;28;20077;-73
2022/04/19 03:59:51;;;;;;;4.53;1.92;;;7.20;99.90;;;;;;5074006;28;20028;-73
2022/04/19 04:02:17;;;;;;;4.57;1.83;;;7.20;99.90;;;;;;5089455;28;20039;-71
2022/04/19 04:04:43;;;;;;;6.53;2.20;;;7.30;99.90;;;;;;5072999;28;20031;-71
2022/04/19 04:07:09;;;;;;;8.52;2.70;;;7.30;99.90;;;;;;5069257;28;20386;-71
2022/04/19 04:09:37;;;;;;;7.28;1.80;;;7.20;99.90;;;;;;5071351;28;20031;-71
2022/04/19 04:12:09;;;;;;;6.85;2.58;;;7.20;99.90;;;;;;5079298;28;20028;-72
2022/04/19 04:14:36;;;;;;;8.32;2.30;;;7.20;99.90;;;;;;5069228;28;20035;-71
2022/04/19 04:17:02;;;;;;;8.02;2.00;;;7.20;99.90;;;;;;5084728;28;20591;-71
2022/04/19 04:19:27;;;;;;;8.57;2.10;;;7.20;99.90;;;;;;5073385;28;20039;-71
2022/04/19 04:21:53;;;;;;;5.57;2.50;;;7.10;99.90;;;;;;5068724;28;20426;-72
2022/04/19 04:24:20;;;;;;;8.27;2.30;;;7.10;99.90;;;;;;5069216;28;20036;-71
2022/04/19 04:26:46;;;;;;;5.53;2.03;;;7.20;99.90;;;;;;5068629;28;20035;-71
2022/04/19 04:29:12;;;;;;;8.50;2.30;;;7.20;99.90;;;;;;5073193;28;20072;-71
2022/04/19 04:31:38;;;;;;;6.00;2.17;;;7.20;99.90;;;;;;5068705;28;20059;-71
2022/04/19 04:34:04;;;;;;;5.75;2.00;;;7.20;99.90;;;;;;5069399;28;20029;-72
2022/04/19 04:36:30;;;;;;;7.22;2.17;;;7.20;99.90;;;;;;5068832;28;20039;-72
2022/04/19 04:38:56;;;;;;;6.40;2.17;;;7.30;99.90;;;;;;5082111;28;20039;-72
2022/04/19 04:41:21;;;;;;;8.23;2.00;;;7.30;99.90;;;;;;5091886;28;20047;-72
2022/04/19 04:43:47;;;;;;;7.45;2.28;;;7.20;99.90;;;;;;5076317;28;20071;-72
2022/04/19 04:51:41;;;;;;;7.18;2.20;;;7.30;99.90;;;;;;5079528;28;20042;-72
2022/04/19 04:54:07;;;;;;;6.97;2.38;;;7.30;99.90;;;;;;5091438;28;20125;-73
2022/04/19 04:56:33;;;;;;;5.72;2.55;;;7.30;99.90;;;;;;5091451;28;20051;-74
2022/04/19 04:58:59;;;;;;;6.63;2.38;;;7.40;99.90;;;;;;5079296;28;20496;-72
2022/04/19 05:01:25;;;;;;;6.32;2.65;;;7.40;99.90;;;;;;5081581;28;20070;-71
2022/04/19 05:03:50;;;;;;;3.42;2.15;;;7.50;99.90;;;;;;5087794;28;20580;-72
2022/04/19 05:06:16;;;;;;;7.78;2.30;;;7.50;99.90;;;;;;5087988;28;20438;-72
2022/04/19 05:08:42;;;;;;;10.35;2.35;;;7.60;99.90;;;;;;5082497;28;20090;-71
2022/04/19 05:11:07;;;;;;;6.43;2.38;;;7.60;99.90;;;;;;5071091;28;20035;-72
2022/04/19 05:13:33;;;;;;;6.72;2.40;;;7.70;99.90;;;;;;5071443;28;20039;-72
2022/04/19 05:15:59;;;;;;;3.75;1.88;;;7.70;99.90;;;;;;5072968;28;20480;-71
2022/04/19 05:18:26;;;;;;;8.82;2.35;;;7.70;99.90;;;;;;5091008;28;20024;-73
2022/04/19 05:20:52;;;;;;;5.15;1.90;;;7.60;99.90;;;;;;5089694;28;20027;-72
2022/04/19 05:23:19;;;;;;;7.45;2.03;;;7.60;99.90;;;;;;5071445;28;20603;-72
2022/04/19 05:25:44;;;;;;;4.57;2.30;;;7.50;99.90;;;;;;5067411;28;20025;-74
2022/04/19 05:28:10;;;;;;;4.88;1.95;;;7.50;99.90;;;;;;5070791;28;20133;-73
2022/04/19 05:30:36;;;;;;;11.15;2.58;;;7.50;99.90;;;;;;5084674;28;20040;-71
2022/04/19 05:33:02;;;;;;;9.73;2.25;;;7.50;99.90;;;;;;5067572;28;20543;-73
2022/04/19 05:35:28;;;;;;;6.38;2.20;;;7.50;99.90;;;;;;5067487;28;20055;-72
2022/04/19 05:37:55;;;;;;;5.03;2.15;;;7.60;99.90;;;;;;5071553;28;20043;-72
2022/04/19 05:40:21;;;;;;;6.30;2.40;;;7.60;99.90;;;;;;5090991;28;20461;-72
2022/04/19 05:42:48;;;;;;;11.75;2.88;;;7.70;99.90;;;;;;5090929;28;20078;-70
2022/04/19 05:45:14;;;;;;;7.97;2.65;;;7.70;99.90;;;;;;5071716;28;20024;-73
2022/04/19 05:47:40;;;;;;;10.38;2.70;;;7.80;99.90;;;;;;5065840;28;20031;-72
2022/04/19 05:50:06;;;;;;;5.45;2.20;;;7.70;99.90;;;;;;5084761;28;20035;-73
2022/04/19 05:52:32;;;;;;;8.52;2.60;;;7.80;99.90;;;;;;5086030;28;20024;-73
2022/04/19 05:54:57;;;;;;;5.45;2.85;;;7.80;99.90;;;;;;5086808;28;20435;-72
2022/04/19 05:57:23;;;;;;;4.65;2.63;;;7.80;99.90;;;;;;5087803;28;20376;-72
2022/04/19 05:59:49;;;;;;;10.75;2.45;;;7.90;99.90;;;;;;5085863;28;20028;-72
2022/04/19 06:04:59;;;;;;;9.07;2.85;;;8.00;99.90;;;;;;5072954;28;20048;-72
2022/04/19 06:07:29;;;;;;;8.32;2.53;;;8.00;99.90;;;;;;5071634;28;20035;-73
2022/04/19 06:09:56;;;;;;;6.63;2.55;;;8.10;99.90;;;;;;5092087;28;20028;-72
2022/04/19 06:12:21;;;;;;;5.90;2.72;;;8.20;99.90;;;;;;5094936;28;20028;-70
2022/04/19 06:14:47;;;;;;;7.25;2.60;;;8.20;99.90;;;;;;5091830;28;20030;-71
2022/04/19 06:17:17;;;;;;;7.68;2.50;;;8.20;99.90;;;;;;5091510;28;20052;-71
2022/04/19 06:19:44;;;;;;;9.00;2.60;;;8.30;99.90;;;;;;5076664;28;20031;-73
2022/04/19 06:22:10;;;;;;;6.97;2.35;;;8.40;99.90;;;;;;5071118;28;20021;-73
2022/04/19 06:24:36;;;;;;;6.60;2.40;;;8.40;99.90;;;;;;5073454;28;20111;-72
2022/04/19 06:27:02;;;;;;;6.88;2.90;;;8.50;99.90;;;;;;5074380;28;20549;-74
2022/04/19 06:29:28;;;;;;;8.57;4.00;;;8.70;99.90;;;;;;5087721;28;20119;-73
2022/04/19 06:31:54;;;;;;;5.82;2.78;;;8.80;99.90;;;;;;5092580;28;20098;-72
2022/04/19 06:34:20;;;;;;;7.90;2.40;;;9.00;99.90;;;;;;5079864;28;20058;-73
2022/04/19 06:36:46;;;;;;;8.52;2.80;;;9.00;99.90;;;;;;5072387;28;20056;-72
2022/04/19 06:39:11;;;;;;;5.75;2.17;;;9.20;99.90;;;;;;5085178;28;20440;-73
2022/04/19 06:41:37;;;;;;;6.70;2.50;;;9.30;99.90;;;;;;5086221;28;20475;-74
2022/04/19 06:44:05;;;;;;;7.07;2.15;;;9.40;99.90;;;;;;5083549;28;20027;-73
2022/04/19 06:46:30;;;;;;;7.63;2.67;;;9.50;99.90;;;;;;5094350;28;20375;-73
2022/04/19 06:48:56;;;;;;;8.07;2.47;;;9.60;99.90;;;;;;5086606;28;20116;-74
2022/04/19 06:51:23;;;;;;;7.40;2.60;;;9.80;99.90;;;;;;5080727;28;20032;-73
2022/04/19 06:53:49;;;;;;;5.97;2.85;;;9.90;99.90;;;;;;5093988;28;20032;-72
2022/04/19 06:56:15;;;;;;;5.63;2.30;;;10.00;99.90;;;;;;5093703;28;20032;-72
2022/04/19 06:58:42;;;;;;;8.75;2.63;;;10.10;99.90;;;;;;5093798;28;20020;-73
2022/04/19 07:01:10;;;;;;;6.70;2.35;;;10.20;99.90;;;;;;5092979;28;20505;-73
2022/04/19 07:03:36;;;;;;;6.68;2.65;;;10.30;99.90;;;;;;5071181;28;20112;-73
2022/04/19 07:06:03;;;;;;;9.75;2.60;;;10.40;99.90;;;;;;5069006;28;20099;-74
2022/04/19 07:08:28;;;;;;;6.82;2.47;;;10.50;99.90;;;;;;5078886;28;20078;-73
2022/04/19 07:10:55;;;;;;;9.07;3.15;;;10.50;99.90;;;;;;5091670;28;20035;-73
2022/04/19 07:13:21;;;;;;;5.03;2.45;;;10.50;99.90;;;;;;5091970;28;20503;-72
2022/04/19 07:15:46;;;;;;;6.45;2.88;;;10.60;99.90;;;;;;5088389;28;20025;-74
2022/04/19 07:18:13;;;;;;;8.40;2.30;;;10.70;99.90;;;;;;5088577;28;20047;-72
2022/04/19 07:28:53;;;;;;;7.30;3.10;;;11.20;99.90;;;;;;5092534;28;20197;-73
2022/04/19 07:31:19;;;;;;;6.32;2.80;;;11.20;99.90;;;;;;5092362;28;20036;-73
2022/04/19 07:33:45;;;;;;;11.02;4.35;;;11.40;99.90;;;;;;5093156;28;20040;-75
2022/04/19 07:36:11;;;;;;;9.90;2.92;;;11.50;99.90;;;;;;5082910;28;20028;-74
2022/04/19 07:38:37;;;;;;;8.35;2.67;;;11.60;99.90;;;;;;5092655;28;20032;-75
2022/04/19 07:41:04;;;;;;;5.60;2.85;;;11.70;99.90;;;;;;5092196;28;20023;-74
2022/04/19 07:43:30;;;;;;;8.75;2.70;;;11.70;99.90;;;;;;5093146;28;20441;-74
2022/04/19 07:45:56;;;;;;;5.65;2.75;;;11.80;99.90;;;;;;5091698;28;20044;-75
2022/04/19 07:48:22;;;;;;;5.45;2.70;;;12.00;99.90;;;;;;5093070;28;20067;-75
2022/04/19 07:50:48;;;;;;;6.78;3.28;;;12.00;99.90;;;;;;5086225;28;20532;-74
2022/04/19 07:53:13;;;;;;;8.48;3.00;;;12.10;99.90;;;;;;5073111;28;20118;-75
2022/04/19 07:55:39;;;;;;;9.05;3.10;;;12.10;99.90;;;;;;5072422;28;20024;-75
2022/04/19 07:58:05;;;;;;;8.52;3.63;;;12.20;99.90;;;;;;5073443;28;20085;-76
2022/04/19 08:00:31;;;;;;;9.20;3.50;;;12.30;99.90;;;;;;5092925;28;20055;-76
2022/04/19 08:02:57;;;;;;;8.88;3.20;;;12.30;99.90;;;;;;5092700;28;20453;-75
2022/04/19 08:05:24;;;;;;;10.68;3.42;;;12.30;99.90;;;;;;5092344;28;20097;-73
2022/04/19 08:07:50;;;;;;;6.55;3.25;;;12.20;99.90;;;;;;5072320;28;20020;-73
2022/04/19 08:10:17;;;;;;;8.73;3.20;;;12.20;99.90;;;;;;5091291;28;20110;-74
2022/04/19 08:12:43;;;;;;;5.63;2.97;;;12.20;99.90;;;;;;5092643;28;20106;-74
2022/04/19 08:15:09;;;;;;;7.90;3.80;;;12.30;99.90;;;;;;5092647;28;20433;-73
2022/04/19 08:17:36;;;;;;;9.23;4.13;;;12.40;99.90;;;;;;5092320;28;20078;-74
2022/04/19 08:20:03;;;;;;;7.10;3.70;;;12.50;99.90;;;;;;5092209;28;20028;-75
2022/04/19 08:22:29;;;;;;;12.55;3.85;;;12.50;99.90;;;;;;5074446;28;20031;-75
2022/04/19 08:24:54;;;;;;;7.43;3.70;;;12.60;99.90;;;;;;5068238;28;20034;-75
2022/04/19 08:27:20;;;;;;;6.78;3.33;;;12.70;99.90;;;;;;5068764;28;20016;-75
2022/04/19 08:29:47;;;;;;;7.32;3.15;;;12.60;99.90;;;;;;5085077;28;20036;-74
2022/04/19 08:32:13;;;;;;;7.28;3.70;;;12.60;99.90;;;;;;5092325;28;20101;-74
2022/04/19 08:34:39;;;;;;;8.13;4.13;;;12.70;99.90;;;;;;5092110;28;20026;-74
2022/04/19 08:37:06;;;;;;;9.25;3.72;;;12.90;99.90;;;;;;5079176;28;20392;-73
2022/04/19 08:39:32;;;;;;;8.63;3.53;;;12.90;99.90;;;;;;5084313;28;20085;-74
2022/04/19 08:41:58;;;;;;;8.63;3.65;;;13.10;99.90;;;;;;5076062;28;20028;-75
2022/04/19 08:44:25;;;;;;;11.25;4.20;;;13.30;99.90;;;;;;5071751;28;20103;-73
2022/04/19 08:46:57;;;;;;;10.75;3.60;;;13.30;99.90;;;;;;5072085;28;20048;-75
2022/04/19 08:49:24;;;;;;;9.53;4.57;;;13.40;99.90;;;;;;5082886;28;20040;-76
2022/04/19 08:51:50;;;;;;;7.18;4.38;;;13.50;99.90;;;;;;5081007;28;20050;-75
2022/04/19 08:59:45;;;;;;;9.95;4.40;;;13.80;99.90;;;;;;5084575;28;20031;-75
2022/04/19 09:02:25;;;;;;;8.25;4.47;;;14.00;99.90;;;;;;5091749;28;20024;-77
2022/04/19 09:04:52;;;;;;;7.72;4.00;;;14.20;99.90;;;;;;5091669;28;20103;-77
2022/04/19 09:07:18;;;;;;;9.50;4.22;;;14.40;99.90;;;;;;5079458;28;20028;-75
2022/04/19 09:09:58;;;;;;;9.02;4.32;;;14.40;99.90;;;;;;5085163;28;20039;-75
2022/04/19 09:12:24;;;;;;;14.90;4.45;;;14.40;99.90;;;;;;5090378;28;20044;-75
2022/04/19 09:15:03;;;;;;;9.35;4.47;;;14.30;99.90;;;;;;5091794;28;20113;-74
2022/04/19 09:17:33;;;;;;;8.63;4.40;;;14.40;99.90;;;;;;5086849;28;20040;-75
2022/04/19 09:20:15;;;;;;;10.38;4.32;;;14.60;99.90;;;;;;5083615;28;20031;-74
2022/04/19 09:22:42;;;;;;;11.80;5.82;;;14.70;99.90;;;;;;5075939;28;20021;-76
2022/04/19 09:25:15;;;;;;;11.85;4.28;;;14.60;99.90;;;;;;5071157;28;20029;-74
2022/04/19 09:27:45;;;;;;;11.63;4.85;;;14.90;99.90;;;;;;5071052;28;20162;-74
2022/04/19 09:30:19;;;;;;;9.07;4.85;;;14.90;99.90;;;;;;5088038;28;20039;-74
2022/04/19 09:33:07;;;;;;;9.30;4.45;;;15.20;99.90;;;;;;5091338;28;20072;-75
2022/04/19 09:35:35;;;;;;;10.05;4.90;;;15.30;99.90;;;;;;5090233;28;20016;-74
2022/04/19 09:38:00;;;;;;;9.57;5.13;;;15.40;99.90;;;;;;5074193;28;20077;-75
2022/04/19 09:40:36;;;;;;;10.68;4.68;;;15.70;99.90;;;;;;5090322;28;20110;-75
2022/04/19 09:43:22;;;;;;;10.60;5.45;;;15.80;99.40;;;;;;5091100;28;20020;-75
2022/04/19 09:45:58;;;;;;;9.05;5.35;;;15.90;98.40;;;;;;5089623;28;20016;-75
2022/04/19 09:48:25;;;;;;;10.25;6.10;;;15.80;98.80;;;;;;5091050;28;20497;-74
2022/04/19 09:51:04;;;;;;;13.10;5.65;;;15.80;98.80;;;;;;5089652;28;20118;-75
2022/04/19 09:53:37;;;;;;;13.25;5.50;;;16.00;99.70;;;;;;5071229;28;20048;-74
2022/04/19 09:56:17;;;;;;;10.98;5.05;;;16.20;98.60;;;;;;5071200;28;20024;-75
2022/04/19 09:58:46;;;;;;;15.48;5.53;;;16.50;96.40;;;;;;5075840;28;20024;-74
2022/04/19 10:09:36;;;;;;;9.52;5.03;;;16.70;94.60;;;;;;5081556;28;20170;-75
2022/04/19 10:12:06;;;;;;;10.43;4.80;;;17.00;95.80;;;;;;5090929;28;20028;-75
2022/04/19 10:14:33;;;;;;;10.13;5.20;;;17.30;93.70;;;;;;5090203;28;20381;-74
2022/04/19 10:17:03;;;;;;;9.68;5.05;;;17.60;94.60;;;;;;5087388;28;20055;-75
2022/04/19 10:19:29;;;;;;;15.98;5.18;;;17.70;93.50;;;;;;5087206;28;20027;-74
2022/04/19 10:21:59;;;;;;;10.32;5.28;;;17.80;90.70;;;;;;5085603;28;20545;-75
2022/04/19 10:24:28;;;;;;;11.57;5.85;;;17.80;89.30;;;;;;5070250;28;20492;-75
2022/04/19 10:26:54;;;;;;;9.18;5.15;;;17.70;90.70;;;;;;5069526;28;20035;-75
2022/04/19 10:29:26;;;;;;;11.25;5.68;;;17.80;91.50;;;;;;5076153;28;20024;-75
2022/04/19 10:32:02;;;;;;;10.75;4.85;;;17.90;91.70;;;;;;5087623;28;20023;-75
2022/04/19 10:34:33;;;;;;;12.07;5.00;;;18.00;90.10;;;;;;5090581;28;20119;-74
2022/04/19 10:37:18;;;;;;;10.95;5.00;;;18.10;88.80;;;;;;5086348;28;20058;-74
2022/04/19 10:39:49;;;;;;;8.52;4.78;;;18.30;90.90;;;;;;5082692;28;20024;-74
2022/04/19 10:42:34;;;;;;;12.32;5.43;;;18.40;88.60;;;;;;5088274;28;20035;-74
2022/04/19 10:45:19;;;;;;;11.50;5.38;;;18.50;90.60;;;;;;5087027;28;20392;-73
2022/04/19 10:47:54;;;;;;;12.98;5.93;;;18.60;85.00;;;;;;5088691;28;20035;-73
2022/04/19 10:50:33;;;;;;;8.88;5.13;;;18.60;81.70;;;;;;5090625;28;20047;-75
2022/04/19 10:53:12;;;;;;;7.63;4.80;;;18.70;85.40;;;;;;5082193;28;20262;-74
2022/04/19 10:55:53;;;;;;;12.32;5.80;;;18.90;86.10;;;;;;5073835;28;20020;-73
2022/04/19 10:58:20;;;;;;;9.52;5.53;;;19.10;88.00;;;;;;5074069;28;20082;-74
2022/04/19 11:00:56;;;;;;;10.45;5.22;;;19.50;85.20;;;;;;5093966;28;20028;-74
2022/04/19 11:03:37;;;;;;;12.77;5.60;;;19.70;83.40;;;;;;5093844;28;20080;-74
2022/04/19 11:06:28;;;;;;;12.47;5.10;;;19.70;76.50;;;;;;5093902;28;20023;-74
2022/04/19 11:09:25;;;;;;;8.80;4.13;;;19.70;68.90;;;;;;5080238;28;20055;-74
2022/04/19 11:11:53;;;;;;;10.13;5.00;;;19.70;70.50;;;;;;5092195;28;20060;-73
2022/04/19 11:14:20;;;;;;;12.52;5.75;;;19.60;68.30;;;;;;5092503;28;20502;-74
2022/04/19 11:16:51;;;;;;;11.18;6.00;;;19.20;70.80;;;;;;5092315;28;20128;-75
2022/04/19 11:19:22;;;;;;;12.07;6.25;;;18.80;75.00;;;;;;5093442;28;20093;-73
2022/04/19 11:22:01;;;;;;;13.25;7.00;;;18.60;72.60;;;;;;5093040;28;20387;-75
2022/04/19 11:25:02;;;;;;;13.20;5.82;;;18.40;73.80;;;;;;5073369;28;20366;-74
2022/04/19 11:27:52;;;;;;;12.52;5.85;;;18.60;74.60;;;;;;5073044;28;20469;-74
2022/04/19 11:30:22;;;;;;;13.52;6.25;;;18.30;73.30;;;;;;5089678;28;20043;-74
2022/04/19 11:32:53;;;;;;;8.75;5.45;;;18.00;72.40;;;;;;5093468;28;20048;-74
2022/04/19 11:35:19;;;;;;;11.80;6.00;;;17.80;73.90;;;;;;5075632;28;20032;-74
2022/04/19 11:37:46;;;;;;;14.07;5.97;;;17.50;75.30;;;;;;5073315;28;20070;-74
2022/04/19 11:48:41;;;;;;;18.23;6.03;;;17.60;75.50;;;;;;5081515;28;20054;-74
2022/04/19 11:51:11;;;;;;;13.43;6.20;;;17.60;73.80;;;;;;5080164;28;20052;-74
2022/04/19 11:53:37;;;;;;;12.68;5.97;;;17.20;74.00;;;;;;5073251;28;20033;-74
2022/04/19 11:56:04;;;;;;;14.15;6.90;;;17.30;74.60;;;;;;5072493;28;20441;-74
2022/04/19 11:58:30;;;;;;;14.80;6.65;;;16.90;76.60;;;;;;5071856;28;20465;-75
2022/04/19 12:01:06;;;;;;;15.75;6.95;;;16.80;77.10;;;;;;5092653;28;20115;-74
2022/04/19 12:03:38;;;;;;;14.05;6.30;;;16.50;77.50;;;;;;5092766;28;20020;-75
2022/04/19 12:06:15;;;;;;;13.77;6.43;;;16.30;78.80;;;;;;5083863;28;20055;-74
2022/04/19 12:08:46;;;;;;;15.23;6.60;;;16.30;80.60;;;;;;5072989;28;20033;-74
2022/04/19 12:11:16;;;;;;;13.82;6.65;;;16.50;79.50;;;;;;5072247;28;20032;-74
2022/04/19 12:13:43;;;;;;;13.43;6.78;;;16.50;78.80;;;;;;5072468;28;20390;-74
2022/04/19 12:16:35;;;;;;;14.88;6.85;;;16.30;78.80;;;;;;5072174;28;20111;-74
2022/04/19 12:19:03;;;;;;;13.27;6.87;;;16.00;80.10;;;;;;5077687;28;20059;-74
2022/04/19 12:21:39;;;;;;;16.40;6.57;;;15.90;80.50;;;;;;5092838;28;20245;-73
2022/04/19 12:24:25;;;;;;;14.50;6.97;;;16.20;80.70;;;;;;5077482;28;20029;-74
2022/04/19 12:27:08;;;;;;;15.93;6.75;;;16.40;78.90;;;;;;5071008;28;20025;-75
2022/04/19 12:29:35;;;;;;;16.88;7.22;;;16.50;78.60;;;;;;5080374;28;20369;-75
2022/04/19 12:32:03;;;;;;;12.30;6.18;;;16.90;77.60;;;;;;5092196;28;20032;-75
2022/04/19 12:34:46;;;;;;;18.83;7.70;;;18.20;72.10;;;;;;5091955;28;20016;-74
2022/04/19 12:37:18;;;;;;;11.15;7.05;;;18.90;69.30;;;;;;5090305;28;20376;-74
2022/04/19 12:40:13;;;;;;;15.57;7.28;;;19.50;63.60;;;;;;5080094;28;20375;-75
2022/04/19 12:42:50;;;;;;;14.05;7.50;;;19.30;62.60;;;;;;5078363;28;20410;-74
2022/04/19 12:45:17;;;;;;;14.20;7.05;;;19.50;62.70;;;;;;5088877;28;20031;-74
2022/04/19 12:47:50;;;;;;;14.70;7.53;;;20.30;61.10;;;;;;5088561;28;20020;-75
2022/04/19 12:50:19;;;;;;;14.20;6.88;;;21.20;60.80;;;;;;5087001;28;20036;-75
2022/04/19 12:52:46;;;;;;;14.02;7.05;;;21.70;53.00;;;;;;5087189;28;20115;-75
2022/04/19 12:55:12;;;;;;;14.18;7.05;;;21.80;51.30;;;;;;5071318;28;20029;-76
2022/04/19 13:00:22;;;;;;;15.43;6.68;;;23.10;50.10;;;;;;5087544;28;20123;-75
2022/04/19 13:02:48;;;;;;;13.02;7.28;;;23.90;46.10;;;;;;5091708;28;20052;-75
2022/04/19 13:05:14;;;;;;;13.45;7.78;;;23.30;43.80;;;;;;5087001;28;20416;-75
2022/04/19 13:13:09;;;;;;;14.65;7.80;;;22.80;43.90;;;;;;5091617;28;20031;-74
2022/04/19 13:15:36;;;;;;;17.52;8.45;;;22.30;46.30;;;;;;5091735;28;20028;-73
2022/04/19 13:18:02;;;;;;;14.52;7.55;;;22.10;47.90;;;;;;5086298;28;20044;-74
2022/04/19 13:20:28;;;;;;;16.95;8.20;;;22.00;45.80;;;;;;5079361;28;20381;-74
2022/04/19 13:22:54;;;;;;;16.05;8.25;;;22.50;45.50;;;;;;5071902;28;20499;-76
2022/04/19 13:25:20;;;;;;;18.73;7.70;;;23.10;43.90;;;;;;5071268;28;20385;-76
2022/04/19 13:27:47;;;;;;;13.10;7.47;;;23.00;45.80;;;;;;5070841;28;20523;-75
2022/04/19 13:30:13;;;;;;;14.90;7.00;;;23.60;44.80;;;;;;5085394;28;20035;-75
2022/04/19 13:32:40;;;;;;;14.10;7.47;;;24.10;45.40;;;;;;5090972;28;20027;-75
2022/04/19 13:35:07;;;;;;;18.58;8.35;;;22.80;44.40;;;;;;5091106;28;20104;-75
2022/04/19 13:40:20;;;;;;;14.05;6.82;;;21.20;50.80;;;;;;5086639;28;20038;-76
2022/04/19 13:42:46;;;;;;;14.77;6.50;;;21.00;51.30;;;;;;5089666;28;20027;-76
2022/04/19 13:45:12;;;;;;;16.13;7.07;;;20.60;53.30;;;;;;5090764;28;20035;-76
2022/04/19 13:47:38;;;;;;;15.05;7.00;;;19.90;52.80;;;;;;5090883;28;20102;-75
2022/04/19 13:50:04;;;;;;;11.88;6.88;;;19.20;53.80;;;;;;5089322;28;20124;-76
2022/04/19 13:52:33;;;;;;;17.35;7.32;;;19.40;58.90;;;;;;5090988;28;20078;-76